N510MV KCKB-KSBY
Flight info
| Callsign | N510MV |
|---|---|
| Flight time | 1h 4m |
| Altitude | FL310 |
| Route | DCT SKB V37 ELK V38 LEROL DCT BRV DCT NHK DCT SBY DCT |
| Aircraft | C510/L-VGDW/C |
Departure
| Time | 2026-05-04 22:48 |
|---|---|
| Airport | North Central West Virginia Airport (KCKB) |
Arrival
| Time | 2026-05-04 23:52 |
|---|---|
| Airport | Salisbury Ocean City Wicomico Regional Airport (KSBY) |
| Time | Latitude | Longitude | Altitude | Speed | Heading |
|---|---|---|---|---|---|
| 2026-05-04 22:27 | 39.29747 | -80.23003 | 1177 ft | 0 kts | 19° |
| 2026-05-04 22:41 | 39.29752 | -80.23000 | 1177 ft | 2 kts | 39° |
| 2026-05-04 22:41 | 39.29754 | -80.22979 | 1178 ft | 3 kts | 114° |
| 2026-05-04 22:42 | 39.29760 | -80.22935 | 1180 ft | 5 kts | 28° |
| 2026-05-04 22:42 | 39.29810 | -80.22906 | 1181 ft | 11 kts | 25° |
| 2026-05-04 22:42 | 39.29873 | -80.22864 | 1182 ft | 10 kts | 27° |
| 2026-05-04 22:42 | 39.29936 | -80.22821 | 1184 ft | 13 kts | 27° |
| 2026-05-04 22:43 | 39.30031 | -80.22761 | 1188 ft | 18 kts | 22° |
| 2026-05-04 22:43 | 39.30147 | -80.22699 | 1191 ft | 19 kts | 22° |
| 2026-05-04 22:43 | 39.30260 | -80.22639 | 1193 ft | 18 kts | 22° |
| 2026-05-04 22:43 | 39.30364 | -80.22582 | 1195 ft | 16 kts | 22° |
| 2026-05-04 22:44 | 39.30445 | -80.22537 | 1196 ft | 11 kts | 26° |
| 2026-05-04 22:44 | 39.30514 | -80.22499 | 1197 ft | 13 kts | 22° |
| 2026-05-04 22:44 | 39.30599 | -80.22455 | 1197 ft | 14 kts | 24° |
| 2026-05-04 22:44 | 39.30689 | -80.22405 | 1198 ft | 13 kts | 24° |
| 2026-05-04 22:45 | 39.30756 | -80.22368 | 1199 ft | 9 kts | 23° |
| 2026-05-04 22:45 | 39.30777 | -80.22323 | 1200 ft | 0 kts | 104° |
| 2026-05-04 22:46 | 39.30777 | -80.22322 | 1200 ft | 0 kts | 104° |
| 2026-05-04 22:46 | 39.30768 | -80.22286 | 1201 ft | 7 kts | 116° |
| 2026-05-04 22:46 | 39.30740 | -80.22238 | 1203 ft | 5 kts | 160° |
| 2026-05-04 22:47 | 39.30695 | -80.22255 | 1204 ft | 10 kts | 206° |
| 2026-05-04 22:47 | 39.30401 | -80.22412 | 1200 ft | 86 kts | 204° |
| 2026-05-04 22:47 | 39.29709 | -80.22779 | 1278 ft | 127 kts | 203° |
| 2026-05-04 22:47 | 39.28778 | -80.23261 | 1715 ft | 161 kts | 204° |
| 2026-05-04 22:48 | 39.27742 | -80.23823 | 2432 ft | 179 kts | 209° |
| 2026-05-04 22:48 | 39.26639 | -80.24439 | 3498 ft | 179 kts | 203° |
| 2026-05-04 22:48 | 39.25501 | -80.24875 | 4534 ft | 178 kts | 203° |
| 2026-05-04 22:48 | 39.24353 | -80.25289 | 5509 ft | 178 kts | 203° |
| 2026-05-04 22:49 | 39.23197 | -80.25676 | 6397 ft | 182 kts | 201° |
| 2026-05-04 22:49 | 39.21933 | -80.25491 | 7220 ft | 208 kts | 161° |
| 2026-05-04 22:49 | 39.20804 | -80.24333 | 8015 ft | 221 kts | 147° |
| 2026-05-04 22:49 | 39.19661 | -80.23024 | 8801 ft | 226 kts | 147° |
| 2026-05-04 22:50 | 39.18479 | -80.21818 | 9560 ft | 222 kts | 164° |
| 2026-05-04 22:50 | 39.17075 | -80.21271 | 10369 ft | 215 kts | 176° |
| 2026-05-04 22:50 | 39.15685 | -80.20795 | 11251 ft | 212 kts | 175° |
| 2026-05-04 22:50 | 39.14296 | -80.20333 | 11985 ft | 214 kts | 176° |
| 2026-05-04 22:51 | 39.12890 | -80.19861 | 12707 ft | 216 kts | 176° |
| 2026-05-04 22:51 | 39.11483 | -80.19392 | 13351 ft | 220 kts | 176° |
| 2026-05-04 22:51 | 39.10039 | -80.18920 | 14013 ft | 223 kts | 176° |
| 2026-05-04 22:51 | 39.08592 | -80.18430 | 14678 ft | 227 kts | 171° |
| 2026-05-04 22:52 | 39.07142 | -80.17722 | 15335 ft | 231 kts | 168° |
| 2026-05-04 22:52 | 39.05698 | -80.17008 | 15953 ft | 234 kts | 167° |
| 2026-05-04 22:52 | 39.04234 | -80.16277 | 16544 ft | 237 kts | 167° |
| 2026-05-04 22:52 | 39.02752 | -80.15543 | 17131 ft | 236 kts | 167° |
| 2026-05-04 22:53 | 39.01267 | -80.14804 | 17574 ft | 237 kts | 167° |
| 2026-05-04 22:53 | 38.99747 | -80.14048 | 17947 ft | 241 kts | 167° |
| 2026-05-04 22:53 | 38.98228 | -80.13295 | 18357 ft | 243 kts | 166° |
| 2026-05-04 22:53 | 38.96730 | -80.12549 | 18758 ft | 244 kts | 166° |
| 2026-05-04 22:54 | 38.95177 | -80.11780 | 19150 ft | 246 kts | 167° |
| 2026-05-04 22:54 | 38.93628 | -80.11010 | 19558 ft | 247 kts | 166° |
| 2026-05-04 22:54 | 38.92120 | -80.10016 | 19941 ft | 255 kts | 151° |
| 2026-05-04 22:54 | 38.90823 | -80.08597 | 20312 ft | 262 kts | 137° |
| 2026-05-04 22:55 | 38.89755 | -80.06775 | 20669 ft | 268 kts | 122° |
| 2026-05-04 22:55 | 38.88987 | -80.04722 | 21013 ft | 271 kts | 117° |
| 2026-05-04 22:55 | 38.88148 | -80.02653 | 21364 ft | 272 kts | 122° |
| 2026-05-04 22:55 | 38.87270 | -80.00654 | 21728 ft | 272 kts | 123° |
| 2026-05-04 22:56 | 38.86366 | -79.98636 | 22075 ft | 274 kts | 123° |
| 2026-05-04 22:56 | 38.85456 | -79.96623 | 22410 ft | 275 kts | 123° |
| 2026-05-04 22:56 | 38.84576 | -79.94666 | 22768 ft | 275 kts | 123° |
| 2026-05-04 22:56 | 38.83750 | -79.92837 | 23077 ft | 276 kts | 123° |
| 2026-05-04 22:57 | 38.82909 | -79.90978 | 23384 ft | 277 kts | 123° |
| 2026-05-04 22:57 | 38.82094 | -79.89172 | 23654 ft | 279 kts | 123° |
| 2026-05-04 22:57 | 38.81160 | -79.87109 | 24000 ft | 280 kts | 123° |
| 2026-05-04 22:57 | 38.80238 | -79.85071 | 24311 ft | 282 kts | 123° |
| 2026-05-04 22:58 | 38.79295 | -79.82992 | 24626 ft | 283 kts | 123° |
| 2026-05-04 22:58 | 38.78429 | -79.81078 | 24927 ft | 284 kts | 122° |
| 2026-05-04 22:58 | 38.77579 | -79.79200 | 25193 ft | 285 kts | 122° |
| 2026-05-04 22:58 | 38.76730 | -79.77326 | 25460 ft | 286 kts | 122° |
| 2026-05-04 22:59 | 38.75811 | -79.75302 | 25745 ft | 287 kts | 122° |
| 2026-05-04 22:59 | 38.74839 | -79.73159 | 26043 ft | 288 kts | 122° |
| 2026-05-04 22:59 | 38.73879 | -79.71048 | 26299 ft | 290 kts | 122° |
| 2026-05-04 22:59 | 38.72904 | -79.68902 | 26585 ft | 291 kts | 122° |
| 2026-05-04 23:00 | 38.71926 | -79.66752 | 26843 ft | 292 kts | 122° |
| 2026-05-04 23:00 | 38.70945 | -79.64601 | 27100 ft | 294 kts | 122° |
| 2026-05-04 23:00 | 38.69954 | -79.62420 | 27378 ft | 295 kts | 122° |
| 2026-05-04 23:00 | 38.68955 | -79.60227 | 27661 ft | 295 kts | 121° |
| 2026-05-04 23:01 | 38.67951 | -79.58031 | 27912 ft | 297 kts | 121° |
| 2026-05-04 23:01 | 38.66942 | -79.55820 | 28159 ft | 298 kts | 122° |
| 2026-05-04 23:01 | 38.65935 | -79.53612 | 28393 ft | 300 kts | 121° |
| 2026-05-04 23:01 | 38.64932 | -79.51414 | 28653 ft | 300 kts | 121° |
| 2026-05-04 23:02 | 38.63920 | -79.49209 | 28924 ft | 300 kts | 121° |
| 2026-05-04 23:02 | 38.62906 | -79.46995 | 29222 ft | 299 kts | 121° |
| 2026-05-04 23:02 | 38.61890 | -79.44775 | 29498 ft | 298 kts | 121° |
| 2026-05-04 23:03 | 38.59867 | -79.40361 | 30035 ft | 298 kts | 121° |
| 2026-05-04 23:03 | 38.58858 | -79.38160 | 30283 ft | 297 kts | 121° |
| 2026-05-04 23:03 | 38.57863 | -79.35993 | 30540 ft | 297 kts | 121° |
| 2026-05-04 23:03 | 38.56858 | -79.33806 | 30755 ft | 297 kts | 121° |
| 2026-05-04 23:04 | 38.55872 | -79.31664 | 30928 ft | 299 kts | 121° |
| 2026-05-04 23:04 | 38.54862 | -79.29469 | 30952 ft | 306 kts | 121° |
| 2026-05-04 23:04 | 38.52910 | -79.25229 | 30958 ft | 320 kts | 121° |
| 2026-05-04 23:05 | 38.50936 | -79.20949 | 30955 ft | 328 kts | 121° |
| 2026-05-04 23:05 | 38.48799 | -79.16323 | 30946 ft | 335 kts | 121° |
| 2026-05-04 23:06 | 38.46580 | -79.11531 | 30952 ft | 340 kts | 121° |
| 2026-05-04 23:06 | 38.44384 | -79.06789 | 30952 ft | 344 kts | 121° |
| 2026-05-04 23:07 | 38.42310 | -79.02317 | 30951 ft | 347 kts | 121° |
| 2026-05-04 23:07 | 38.40415 | -78.98242 | 30949 ft | 349 kts | 121° |
| 2026-05-04 23:08 | 38.38108 | -78.93281 | 30956 ft | 351 kts | 121° |
| 2026-05-04 23:08 | 38.35807 | -78.88340 | 30956 ft | 353 kts | 121° |
| 2026-05-04 23:09 | 38.33495 | -78.83380 | 30955 ft | 354 kts | 120° |
| 2026-05-04 23:09 | 38.31884 | -78.77990 | 30958 ft | 354 kts | 100° |
| 2026-05-04 23:10 | 38.31663 | -78.72238 | 30960 ft | 351 kts | 83° |
| 2026-05-04 23:10 | 38.31875 | -78.66423 | 30952 ft | 353 kts | 85° |
| 2026-05-04 23:11 | 38.32002 | -78.60452 | 30936 ft | 354 kts | 85° |
| 2026-05-04 23:11 | 38.32107 | -78.54658 | 30934 ft | 354 kts | 85° |
| 2026-05-04 23:12 | 38.32211 | -78.48839 | 30935 ft | 354 kts | 85° |
| 2026-05-04 23:12 | 38.32312 | -78.42874 | 30930 ft | 354 kts | 85° |
| 2026-05-04 23:13 | 38.32411 | -78.37014 | 30932 ft | 354 kts | 86° |
| 2026-05-04 23:13 | 38.32503 | -78.31241 | 30928 ft | 353 kts | 86° |
| 2026-05-04 23:14 | 38.32596 | -78.25227 | 30928 ft | 353 kts | 86° |
| 2026-05-04 23:14 | 38.32678 | -78.19814 | 30924 ft | 352 kts | 86° |
| 2026-05-04 23:15 | 38.32759 | -78.14222 | 30925 ft | 352 kts | 86° |
| 2026-05-04 23:15 | 38.32842 | -78.08331 | 30920 ft | 352 kts | 86° |
| 2026-05-04 23:16 | 38.32922 | -78.02329 | 30924 ft | 352 kts | 86° |
| 2026-05-04 23:16 | 38.32999 | -77.96470 | 30922 ft | 352 kts | 86° |
| 2026-05-04 23:17 | 38.33072 | -77.90695 | 30920 ft | 352 kts | 86° |
| 2026-05-04 23:18 | 38.33205 | -77.79627 | 30915 ft | 352 kts | 86° |
| 2026-05-04 23:18 | 38.33272 | -77.73595 | 30913 ft | 352 kts | 86° |
| 2026-05-04 23:19 | 38.33334 | -77.67666 | 30918 ft | 352 kts | 86° |
| 2026-05-04 23:19 | 38.33395 | -77.61849 | 30470 ft | 350 kts | 86° |
| 2026-05-04 23:20 | 38.33420 | -77.59004 | 30002 ft | 342 kts | 86° |
| 2026-05-04 23:20 | 38.33446 | -77.56205 | 29525 ft | 334 kts | 86° |
| 2026-05-04 23:20 | 38.33470 | -77.53504 | 29054 ft | 326 kts | 86° |
| 2026-05-04 23:20 | 38.33495 | -77.50901 | 28593 ft | 319 kts | 86° |
| 2026-05-04 23:21 | 38.33518 | -77.48301 | 28132 ft | 313 kts | 86° |
| 2026-05-04 23:21 | 38.33540 | -77.45748 | 27671 ft | 308 kts | 86° |
| 2026-05-04 23:21 | 38.33562 | -77.43199 | 27206 ft | 303 kts | 86° |
| 2026-05-04 23:21 | 38.33583 | -77.40668 | 26739 ft | 299 kts | 86° |
| 2026-05-04 23:22 | 38.33602 | -77.38168 | 26278 ft | 296 kts | 86° |
| 2026-05-04 23:22 | 38.33623 | -77.35704 | 25817 ft | 293 kts | 87° |
| 2026-05-04 23:22 | 38.33528 | -77.33295 | 25362 ft | 291 kts | 92° |
| 2026-05-04 23:22 | 38.33386 | -77.30788 | 24870 ft | 289 kts | 92° |
| 2026-05-04 23:23 | 38.33249 | -77.28362 | 24381 ft | 287 kts | 92° |
| 2026-05-04 23:23 | 38.33125 | -77.26137 | 23948 ft | 284 kts | 92° |
| 2026-05-04 23:23 | 38.33002 | -77.23900 | 23530 ft | 282 kts | 92° |
| 2026-05-04 23:23 | 38.32885 | -77.21834 | 23159 ft | 279 kts | 92° |
| 2026-05-04 23:24 | 38.32776 | -77.19910 | 22795 ft | 278 kts | 92° |
| 2026-05-04 23:24 | 38.32650 | -77.17666 | 22387 ft | 276 kts | 92° |
| 2026-05-04 23:24 | 38.32523 | -77.15386 | 21922 ft | 276 kts | 92° |
| 2026-05-04 23:24 | 38.32399 | -77.13162 | 21570 ft | 276 kts | 92° |
| 2026-05-04 23:25 | 38.32278 | -77.11057 | 21307 ft | 274 kts | 92° |
| 2026-05-04 23:25 | 38.32158 | -77.08932 | 21041 ft | 273 kts | 92° |
| 2026-05-04 23:25 | 38.32034 | -77.06732 | 20767 ft | 271 kts | 92° |
| 2026-05-04 23:25 | 38.31921 | -77.04774 | 20524 ft | 270 kts | 92° |
| 2026-05-04 23:26 | 38.31796 | -77.02582 | 20252 ft | 268 kts | 92° |
| 2026-05-04 23:26 | 38.31675 | -77.00480 | 19989 ft | 267 kts | 92° |
| 2026-05-04 23:26 | 38.31548 | -76.98271 | 19716 ft | 265 kts | 92° |
| 2026-05-04 23:26 | 38.31417 | -76.95991 | 19402 ft | 265 kts | 92° |
| 2026-05-04 23:27 | 38.31283 | -76.93724 | 19159 ft | 262 kts | 92° |
| 2026-05-04 23:27 | 38.31155 | -76.91524 | 18897 ft | 261 kts | 92° |
| 2026-05-04 23:27 | 38.31026 | -76.89300 | 18629 ft | 262 kts | 92° |
| 2026-05-04 23:27 | 38.30896 | -76.87057 | 18362 ft | 266 kts | 93° |
| 2026-05-04 23:28 | 38.30759 | -76.84708 | 18076 ft | 270 kts | 93° |
| 2026-05-04 23:28 | 38.30614 | -76.82278 | 17785 ft | 273 kts | 93° |
| 2026-05-04 23:28 | 38.30471 | -76.79878 | 17488 ft | 276 kts | 93° |
| 2026-05-04 23:28 | 38.30332 | -76.77507 | 17188 ft | 279 kts | 92° |
| 2026-05-04 23:29 | 38.30326 | -76.75157 | 16885 ft | 278 kts | 81° |
| 2026-05-04 23:29 | 38.30590 | -76.72835 | 16605 ft | 279 kts | 78° |
| 2026-05-04 23:29 | 38.30868 | -76.70453 | 16301 ft | 279 kts | 79° |
| 2026-05-04 23:29 | 38.31150 | -76.68080 | 15994 ft | 279 kts | 78° |
| 2026-05-04 23:30 | 38.31431 | -76.65688 | 15699 ft | 279 kts | 78° |
| 2026-05-04 23:30 | 38.31703 | -76.63377 | 15439 ft | 279 kts | 78° |
| 2026-05-04 23:30 | 38.31978 | -76.61034 | 15144 ft | 279 kts | 78° |
| 2026-05-04 23:30 | 38.32239 | -76.58784 | 14852 ft | 277 kts | 78° |
| 2026-05-04 23:31 | 38.32439 | -76.57029 | 14660 ft | 276 kts | 78° |
| 2026-05-04 23:31 | 38.32696 | -76.54797 | 14396 ft | 275 kts | 78° |
| 2026-05-04 23:31 | 38.32951 | -76.52550 | 14172 ft | 274 kts | 78° |
| 2026-05-04 23:31 | 38.33207 | -76.50287 | 13914 ft | 273 kts | 78° |
| 2026-05-04 23:32 | 38.33444 | -76.48182 | 13713 ft | 271 kts | 78° |
| 2026-05-04 23:32 | 38.33691 | -76.45971 | 13523 ft | 269 kts | 78° |
| 2026-05-04 23:32 | 38.33943 | -76.43738 | 13360 ft | 265 kts | 78° |
| 2026-05-04 23:32 | 38.34181 | -76.41596 | 13250 ft | 261 kts | 78° |
| 2026-05-04 23:33 | 38.34423 | -76.39431 | 13194 ft | 255 kts | 78° |
| 2026-05-04 23:33 | 38.34654 | -76.37324 | 13195 ft | 247 kts | 78° |
| 2026-05-04 23:33 | 38.34881 | -76.35244 | 13195 ft | 240 kts | 78° |
| 2026-05-04 23:33 | 38.35098 | -76.33241 | 13192 ft | 235 kts | 79° |
| 2026-05-04 23:34 | 38.35309 | -76.31267 | 13198 ft | 232 kts | 79° |
| 2026-05-04 23:34 | 38.35523 | -76.29294 | 13089 ft | 237 kts | 78° |
| 2026-05-04 23:34 | 38.35745 | -76.27276 | 12883 ft | 241 kts | 79° |
| 2026-05-04 23:34 | 38.35963 | -76.25291 | 12693 ft | 244 kts | 78° |
| 2026-05-04 23:35 | 38.36164 | -76.23455 | 12472 ft | 245 kts | 78° |
| 2026-05-04 23:35 | 38.36395 | -76.21372 | 12187 ft | 245 kts | 78° |
| 2026-05-04 23:35 | 38.36626 | -76.19297 | 11903 ft | 245 kts | 78° |
| 2026-05-04 23:35 | 38.36860 | -76.17199 | 11603 ft | 245 kts | 78° |
| 2026-05-04 23:36 | 38.37090 | -76.15122 | 11292 ft | 243 kts | 78° |
| 2026-05-04 23:36 | 38.37314 | -76.13066 | 10974 ft | 242 kts | 78° |
| 2026-05-04 23:36 | 38.37540 | -76.11012 | 10644 ft | 241 kts | 78° |
| 2026-05-04 23:36 | 38.37764 | -76.08975 | 10401 ft | 240 kts | 78° |
| 2026-05-04 23:37 | 38.37984 | -76.06950 | 10117 ft | 236 kts | 78° |
| 2026-05-04 23:37 | 38.38193 | -76.04947 | 9813 ft | 233 kts | 78° |
| 2026-05-04 23:37 | 38.38398 | -76.02956 | 9553 ft | 231 kts | 78° |
| 2026-05-04 23:37 | 38.38602 | -76.00983 | 9273 ft | 229 kts | 78° |
| 2026-05-04 23:38 | 38.38816 | -75.99022 | 8984 ft | 227 kts | 78° |
| 2026-05-04 23:38 | 38.39034 | -75.97127 | 8690 ft | 226 kts | 78° |
| 2026-05-04 23:38 | 38.39268 | -75.95175 | 8427 ft | 225 kts | 78° |
| 2026-05-04 23:38 | 38.39508 | -75.93271 | 8127 ft | 222 kts | 78° |
| 2026-05-04 23:39 | 38.39761 | -75.91386 | 7802 ft | 219 kts | 78° |
| 2026-05-04 23:39 | 38.40021 | -75.89544 | 7498 ft | 216 kts | 78° |
| 2026-05-04 23:39 | 38.40291 | -75.87715 | 7243 ft | 213 kts | 78° |
| 2026-05-04 23:39 | 38.40573 | -75.85912 | 6951 ft | 211 kts | 78° |
| 2026-05-04 23:40 | 38.40868 | -75.84114 | 6625 ft | 209 kts | 78° |
| 2026-05-04 23:40 | 38.41169 | -75.82344 | 6318 ft | 208 kts | 78° |
| 2026-05-04 23:40 | 38.41439 | -75.80567 | 6039 ft | 205 kts | 90° |
| 2026-05-04 23:40 | 38.41048 | -75.78930 | 5750 ft | 194 kts | 131° |
| 2026-05-04 23:41 | 38.40207 | -75.77659 | 5437 ft | 192 kts | 136° |
| 2026-05-04 23:41 | 38.39350 | -75.76407 | 5117 ft | 193 kts | 137° |
| 2026-05-04 23:41 | 38.38470 | -75.75131 | 4777 ft | 194 kts | 138° |
| 2026-05-04 23:41 | 38.37562 | -75.73882 | 4433 ft | 193 kts | 139° |
| 2026-05-04 23:42 | 38.36653 | -75.72643 | 4090 ft | 193 kts | 139° |
| 2026-05-04 23:42 | 38.35783 | -75.71453 | 3771 ft | 193 kts | 139° |
| 2026-05-04 23:42 | 38.34886 | -75.70228 | 3441 ft | 192 kts | 138° |
| 2026-05-04 23:42 | 38.33969 | -75.69054 | 3090 ft | 185 kts | 156° |
| 2026-05-04 23:43 | 38.32838 | -75.68915 | 2993 ft | 156 kts | 204° |
| 2026-05-04 23:43 | 38.32088 | -75.69666 | 2973 ft | 137 kts | 228° |
| 2026-05-04 23:43 | 38.31458 | -75.70575 | 2989 ft | 145 kts | 229° |
| 2026-05-04 23:43 | 38.30817 | -75.71512 | 2987 ft | 148 kts | 229° |
| 2026-05-04 23:44 | 38.30158 | -75.72478 | 2989 ft | 150 kts | 230° |
| 2026-05-04 23:44 | 38.29775 | -75.73658 | 2982 ft | 155 kts | 268° |
| 2026-05-04 23:44 | 38.30206 | -75.74888 | 2991 ft | 165 kts | 304° |
| 2026-05-04 23:44 | 38.31002 | -75.75930 | 2984 ft | 169 kts | 308° |
| 2026-05-04 23:45 | 38.31832 | -75.76988 | 2970 ft | 174 kts | 311° |
| 2026-05-04 23:45 | 38.32953 | -75.77589 | 2984 ft | 188 kts | 354° |
| 2026-05-04 23:45 | 38.34181 | -75.77062 | 2973 ft | 196 kts | 33° |
| 2026-05-04 23:45 | 38.35246 | -75.75962 | 2563 ft | 204 kts | 39° |
| 2026-05-04 23:46 | 38.36309 | -75.74840 | 2335 ft | 198 kts | 39° |
| 2026-05-04 23:46 | 38.37346 | -75.73751 | 2113 ft | 192 kts | 39° |
| 2026-05-04 23:46 | 38.38220 | -75.72717 | 1971 ft | 160 kts | 59° |
| 2026-05-04 23:46 | 38.38472 | -75.71457 | 1964 ft | 143 kts | 97° |
| 2026-05-04 23:47 | 38.38422 | -75.70115 | 2001 ft | 154 kts | 98° |
| 2026-05-04 23:47 | 38.38377 | -75.68834 | 1954 ft | 142 kts | 99° |
| 2026-05-04 23:47 | 38.38347 | -75.67664 | 1956 ft | 125 kts | 98° |
| 2026-05-04 23:47 | 38.38334 | -75.66590 | 1907 ft | 126 kts | 97° |
| 2026-05-04 23:48 | 38.38315 | -75.65495 | 1886 ft | 124 kts | 99° |
| 2026-05-04 23:48 | 38.38260 | -75.64416 | 1867 ft | 122 kts | 103° |
| 2026-05-04 23:48 | 38.38185 | -75.63323 | 1895 ft | 125 kts | 102° |
| 2026-05-04 23:48 | 38.38057 | -75.62284 | 1968 ft | 119 kts | 118° |
| 2026-05-04 23:49 | 38.37892 | -75.61226 | 2013 ft | 124 kts | 104° |
| 2026-05-04 23:49 | 38.37863 | -75.60135 | 2047 ft | 129 kts | 94° |
| 2026-05-04 23:49 | 38.37898 | -75.59014 | 2103 ft | 127 kts | 97° |
| 2026-05-04 23:49 | 38.37773 | -75.57974 | 1921 ft | 117 kts | 109° |
| 2026-05-04 23:50 | 38.37596 | -75.56974 | 1637 ft | 118 kts | 113° |
| 2026-05-04 23:50 | 38.37249 | -75.56092 | 1358 ft | 109 kts | 131° |
| 2026-05-04 23:50 | 38.36806 | -75.55312 | 1136 ft | 112 kts | 133° |
| 2026-05-04 23:50 | 38.36331 | -75.54552 | 868 ft | 111 kts | 134° |
| 2026-05-04 23:51 | 38.35866 | -75.53811 | 617 ft | 106 kts | 131° |
| 2026-05-04 23:51 | 38.35429 | -75.53071 | 358 ft | 105 kts | 131° |
| 2026-05-04 23:51 | 38.35014 | -75.52360 | 216 ft | 103 kts | 129° |
| 2026-05-04 23:51 | 38.34584 | -75.51640 | 75 ft | 103 kts | 128° |
| 2026-05-04 23:52 | 38.34213 | -75.51005 | 42 ft | 73 kts | 125° |
| 2026-05-04 23:52 | 38.34052 | -75.50726 | 44 ft | 23 kts | 127° |
| 2026-05-04 23:52 | 38.33971 | -75.50587 | 45 ft | 17 kts | 127° |
| 2026-05-04 23:52 | 38.33899 | -75.50521 | 45 ft | 10 kts | 189° |
| 2026-05-04 23:53 | 38.33852 | -75.50555 | 44 ft | 6 kts | 226° |
| 2026-05-04 23:53 | 38.33845 | -75.50607 | 44 ft | 7 kts | 301° |
| 2026-05-04 23:53 | 38.33911 | -75.50723 | 44 ft | 19 kts | 307° |
| 2026-05-04 23:53 | 38.33982 | -75.50844 | 43 ft | 16 kts | 306° |
| 2026-05-04 23:54 | 38.34040 | -75.50945 | 42 ft | 13 kts | 306° |
| 2026-05-04 23:54 | 38.34087 | -75.51022 | 42 ft | 12 kts | 307° |
| 2026-05-04 23:54 | 38.34146 | -75.51123 | 42 ft | 16 kts | 307° |
| 2026-05-04 23:54 | 38.34210 | -75.51232 | 42 ft | 16 kts | 307° |
| 2026-05-04 23:55 | 38.34275 | -75.51342 | 42 ft | 17 kts | 305° |
| 2026-05-04 23:55 | 38.34314 | -75.51425 | 42 ft | 8 kts | 269° |
| 2026-05-04 23:55 | 38.34209 | -75.51531 | 43 ft | 16 kts | 215° |
| 2026-05-04 23:56 | 38.34126 | -75.51610 | 42 ft | 14 kts | 217° |
| 2026-05-04 23:56 | 38.34056 | -75.51676 | 42 ft | 12 kts | 216° |
| 2026-05-04 23:56 | 38.33986 | -75.51743 | 41 ft | 15 kts | 215° |
| 2026-05-04 23:56 | 38.33908 | -75.51816 | 40 ft | 13 kts | 216° |
| 2026-05-04 23:57 | 38.33838 | -75.51851 | 39 ft | 13 kts | 178° |
| 2026-05-04 23:57 | 38.33780 | -75.51881 | 39 ft | 4 kts | 217° |
| 2026-05-04 23:57 | 38.33774 | -75.51906 | 39 ft | 3 kts | 306° |
| 2026-05-04 23:57 | 38.33785 | -75.51923 | 39 ft | 3 kts | 304° |
| 2026-05-04 23:58 | 38.33786 | -75.51925 | 39 ft | 0 kts | 304° |